sensor_id;sensor_type;location;lat;lon;timestamp;temperature;humidity
34406;DHT22;20658;45.630;8.886;2022-12-18T00:00:27;5.70;99.90
34406;DHT22;20658;45.630;8.886;2022-12-18T00:02:55;5.70;99.90
34406;DHT22;20658;45.630;8.886;2022-12-18T00:05:29;5.70;99.90
34406;DHT22;20658;45.630;8.886;2022-12-18T00:08:02;5.70;99.90
34406;DHT22;20658;45.630;8.886;2022-12-18T00:10:37;5.70;99.90
34406;DHT22;20658;45.630;8.886;2022-12-18T00:13:11;5.70;99.90
34406;DHT22;20658;45.630;8.886;2022-12-18T00:15:40;5.70;99.90
34406;DHT22;20658;45.630;8.886;2022-12-18T00:18:14;5.70;99.90
34406;DHT22;20658;45.630;8.886;2022-12-18T00:20:47;5.70;99.90
34406;DHT22;20658;45.630;8.886;2022-12-18T00:23:15;5.80;99.90
34406;DHT22;20658;45.630;8.886;2022-12-18T00:25:51;5.70;99.90
34406;DHT22;20658;45.630;8.886;2022-12-18T00:28:24;5.70;99.90
34406;DHT22;20658;45.630;8.886;2022-12-18T00:31:00;5.80;99.90
34406;DHT22;20658;45.630;8.886;2022-12-18T00:33:35;5.80;99.90
34406;DHT22;20658;45.630;8.886;2022-12-18T00:36:10;5.80;99.90
34406;DHT22;20658;45.630;8.886;2022-12-18T00:38:47;5.80;99.90
34406;DHT22;20658;45.630;8.886;2022-12-18T00:41:22;5.80;99.90
34406;DHT22;20658;45.630;8.886;2022-12-18T00:44:15;5.80;99.90
34406;DHT22;20658;45.630;8.886;2022-12-18T00:46:50;5.80;99.90
34406;DHT22;20658;45.630;8.886;2022-12-18T00:49:23;5.70;99.90
34406;DHT22;20658;45.630;8.886;2022-12-18T00:51:57;5.70;99.90
34406;DHT22;20658;45.630;8.886;2022-12-18T00:54:30;5.70;99.90
34406;DHT22;20658;45.630;8.886;2022-12-18T00:57:01;5.70;99.90
34406;DHT22;20658;45.630;8.886;2022-12-18T00:59:34;5.70;99.90
34406;DHT22;20658;45.630;8.886;2022-12-18T01:02:08;5.70;99.90
34406;DHT22;20658;45.630;8.886;2022-12-18T01:04:39;5.70;99.90
34406;DHT22;20658;45.630;8.886;2022-12-18T01:07:07;5.70;99.90
34406;DHT22;20658;45.630;8.886;2022-12-18T01:09:35;5.70;99.90
34406;DHT22;20658;45.630;8.886;2022-12-18T01:12:06;5.60;99.90
34406;DHT22;20658;45.630;8.886;2022-12-18T01:14:40;5.60;99.90
34406;DHT22;20658;45.630;8.886;2022-12-18T01:17:08;5.60;99.90
34406;DHT22;20658;45.630;8.886;2022-12-18T01:19:37;5.70;99.90
34406;DHT22;20658;45.630;8.886;2022-12-18T01:22:10;5.60;99.90
34406;DHT22;20658;45.630;8.886;2022-12-18T01:24:39;5.60;99.90
34406;DHT22;20658;45.630;8.886;2022-12-18T01:27:14;5.60;99.90
34406;DHT22;20658;45.630;8.886;2022-12-18T01:29:42;5.60;99.90
34406;DHT22;20658;45.630;8.886;2022-12-18T01:32:11;5.60;99.90
34406;DHT22;20658;45.630;8.886;2022-12-18T01:34:44;5.60;99.90
34406;DHT22;20658;45.630;8.886;2022-12-18T01:37:13;5.60;99.90
34406;DHT22;20658;45.630;8.886;2022-12-18T01:39:41;5.60;99.90
34406;DHT22;20658;45.630;8.886;2022-12-18T01:42:11;5.80;99.90
34406;DHT22;20658;45.630;8.886;2022-12-18T01:45:05;5.60;99.90
34406;DHT22;20658;45.630;8.886;2022-12-18T01:47:44;5.60;99.90
34406;DHT22;20658;45.630;8.886;2022-12-18T01:50:21;5.60;99.90
34406;DHT22;20658;45.630;8.886;2022-12-18T01:52:59;5.70;99.90
34406;DHT22;20658;45.630;8.886;2022-12-18T01:55:37;5.70;99.90
34406;DHT22;20658;45.630;8.886;2022-12-18T01:58:15;5.60;99.90
34406;DHT22;20658;45.630;8.886;2022-12-18T02:00:46;5.70;99.90
34406;DHT22;20658;45.630;8.886;2022-12-18T02:03:14;5.60;99.90
34406;DHT22;20658;45.630;8.886;2022-12-18T02:05:54;5.60;99.90
34406;DHT22;20658;45.630;8.886;2022-12-18T02:08:35;5.60;99.90
34406;DHT22;20658;45.630;8.886;2022-12-18T02:11:10;5.60;99.90
34406;DHT22;20658;45.630;8.886;2022-12-18T02:13:46;5.60;99.90
34406;DHT22;20658;45.630;8.886;2022-12-18T02:16:38;5.60;99.90
34406;DHT22;20658;45.630;8.886;2022-12-18T02:22:29;5.60;99.90
34406;DHT22;20658;45.630;8.886;2022-12-18T02:25:24;5.60;99.90
34406;DHT22;20658;45.630;8.886;2022-12-18T02:28:11;5.60;99.90
34406;DHT22;20658;45.630;8.886;2022-12-18T02:30:42;5.60;99.90
34406;DHT22;20658;45.630;8.886;2022-12-18T02:33:19;5.60;99.90
34406;DHT22;20658;45.630;8.886;2022-12-18T02:35:51;5.60;99.90
34406;DHT22;20658;45.630;8.886;2022-12-18T02:38:21;5.60;99.90
34406;DHT22;20658;45.630;8.886;2022-12-18T02:40:57;5.60;99.90
34406;DHT22;20658;45.630;8.886;2022-12-18T02:43:27;5.60;99.90
34406;DHT22;20658;45.630;8.886;2022-12-18T02:46:00;5.60;99.90
34406;DHT22;20658;45.630;8.886;2022-12-18T02:48:33;5.60;99.90
34406;DHT22;20658;45.630;8.886;2022-12-18T02:51:06;5.60;99.90
34406;DHT22;20658;45.630;8.886;2022-12-18T02:53:43;5.60;99.90
34406;DHT22;20658;45.630;8.886;2022-12-18T02:56:21;5.60;99.90
34406;DHT22;20658;45.630;8.886;2022-12-18T02:59:00;6.00;99.90
34406;DHT22;20658;45.630;8.886;2022-12-18T03:01:47;5.60;99.90
34406;DHT22;20658;45.630;8.886;2022-12-18T03:04:26;5.70;99.90
34406;DHT22;20658;45.630;8.886;2022-12-18T03:07:11;5.70;99.90
34406;DHT22;20658;45.630;8.886;2022-12-18T03:09:47;5.80;99.90
34406;DHT22;20658;45.630;8.886;2022-12-18T03:12:29;5.80;99.90
34406;DHT22;20658;45.630;8.886;2022-12-18T03:15:09;5.80;99.90
34406;DHT22;20658;45.630;8.886;2022-12-18T03:17:52;5.80;99.90
34406;DHT22;20658;45.630;8.886;2022-12-18T03:20:26;5.80;99.90
34406;DHT22;20658;45.630;8.886;2022-12-18T03:23:00;5.80;99.90
34406;DHT22;20658;45.630;8.886;2022-12-18T03:25:40;5.80;99.90
34406;DHT22;20658;45.630;8.886;2022-12-18T03:28:19;5.80;99.90
34406;DHT22;20658;45.630;8.886;2022-12-18T03:30:57;5.80;99.90
34406;DHT22;20658;45.630;8.886;2022-12-18T03:33:38;5.80;99.90
34406;DHT22;20658;45.630;8.886;2022-12-18T03:36:09;5.80;99.90
34406;DHT22;20658;45.630;8.886;2022-12-18T03:38:38;5.80;99.90
34406;DHT22;20658;45.630;8.886;2022-12-18T03:41:16;5.80;99.90
34406;DHT22;20658;45.630;8.886;2022-12-18T03:44:21;5.80;99.90
34406;DHT22;20658;45.630;8.886;2022-12-18T03:47:05;5.80;99.90
34406;DHT22;20658;45.630;8.886;2022-12-18T03:49:47;5.70;99.90
34406;DHT22;20658;45.630;8.886;2022-12-18T03:52:23;5.70;99.90
34406;DHT22;20658;45.630;8.886;2022-12-18T03:55:00;5.70;99.90
34406;DHT22;20658;45.630;8.886;2022-12-18T03:57:35;5.70;99.90
34406;DHT22;20658;45.630;8.886;2022-12-18T04:00:08;6.00;99.90
34406;DHT22;20658;45.630;8.886;2022-12-18T04:02:55;5.70;99.90
34406;DHT22;20658;45.630;8.886;2022-12-18T04:05:36;5.70;99.90
34406;DHT22;20658;45.630;8.886;2022-12-18T04:08:06;5.70;99.90
34406;DHT22;20658;45.630;8.886;2022-12-18T04:10:43;5.70;99.90
34406;DHT22;20658;45.630;8.886;2022-12-18T04:13:22;5.70;99.90
34406;DHT22;20658;45.630;8.886;2022-12-18T04:15:51;5.70;99.90
34406;DHT22;20658;45.630;8.886;2022-12-18T04:18:26;5.70;99.90
34406;DHT22;20658;45.630;8.886;2022-12-18T04:21:01;5.70;99.90
34406;DHT22;20658;45.630;8.886;2022-12-18T04:23:34;5.70;99.90
34406;DHT22;20658;45.630;8.886;2022-12-18T04:26:08;5.70;99.90
34406;DHT22;20658;45.630;8.886;2022-12-18T04:28:51;5.70;99.90
34406;DHT22;20658;45.630;8.886;2022-12-18T04:31:24;5.70;99.90
34406;DHT22;20658;45.630;8.886;2022-12-18T04:33:59;5.70;99.90
34406;DHT22;20658;45.630;8.886;2022-12-18T04:36:39;5.70;99.90
34406;DHT22;20658;45.630;8.886;2022-12-18T04:39:13;5.70;99.90
34406;DHT22;20658;45.630;8.886;2022-12-18T04:41:41;5.70;99.90
34406;DHT22;20658;45.630;8.886;2022-12-18T04:44:15;5.70;99.90
34406;DHT22;20658;45.630;8.886;2022-12-18T04:46:49;5.70;99.90
34406;DHT22;20658;45.630;8.886;2022-12-18T04:49:19;5.70;99.90
34406;DHT22;20658;45.630;8.886;2022-12-18T04:51:53;6.10;99.90
34406;DHT22;20658;45.630;8.886;2022-12-18T04:54:21;5.70;99.90
34406;DHT22;20658;45.630;8.886;2022-12-18T04:56:55;5.70;99.90
34406;DHT22;20658;45.630;8.886;2022-12-18T04:59:23;5.70;99.90
34406;DHT22;20658;45.630;8.886;2022-12-18T05:01:57;5.70;99.90
34406;DHT22;20658;45.630;8.886;2022-12-18T05:04:27;5.70;99.90
34406;DHT22;20658;45.630;8.886;2022-12-18T05:07:01;5.70;99.90
34406;DHT22;20658;45.630;8.886;2022-12-18T05:09:34;5.70;99.90
34406;DHT22;20658;45.630;8.886;2022-12-18T05:12:07;5.70;99.90
34406;DHT22;20658;45.630;8.886;2022-12-18T05:14:41;5.60;99.90
34406;DHT22;20658;45.630;8.886;2022-12-18T05:17:14;5.60;99.90
34406;DHT22;20658;45.630;8.886;2022-12-18T05:19:44;5.60;99.90
34406;DHT22;20658;45.630;8.886;2022-12-18T05:22:17;5.60;99.90
34406;DHT22;20658;45.630;8.886;2022-12-18T05:24:51;5.60;99.90
34406;DHT22;20658;45.630;8.886;2022-12-18T05:27:24;5.70;99.90
34406;DHT22;20658;45.630;8.886;2022-12-18T05:29:52;5.70;99.90
34406;DHT22;20658;45.630;8.886;2022-12-18T05:32:26;5.60;99.90
34406;DHT22;20658;45.630;8.886;2022-12-18T05:34:56;5.70;99.90
34406;DHT22;20658;45.630;8.886;2022-12-18T05:37:29;5.90;99.90
34406;DHT22;20658;45.630;8.886;2022-12-18T05:40:04;5.70;99.90
34406;DHT22;20658;45.630;8.886;2022-12-18T05:42:33;5.70;99.90
34406;DHT22;20658;45.630;8.886;2022-12-18T05:45:01;5.70;99.90
34406;DHT22;20658;45.630;8.886;2022-12-18T05:47:35;5.70;99.90
34406;DHT22;20658;45.630;8.886;2022-12-18T05:50:10;5.70;99.90
34406;DHT22;20658;45.630;8.886;2022-12-18T05:52:38;5.70;99.90
34406;DHT22;20658;45.630;8.886;2022-12-18T05:55:12;5.70;99.90
34406;DHT22;20658;45.630;8.886;2022-12-18T05:57:45;5.70;99.90
34406;DHT22;20658;45.630;8.886;2022-12-18T06:00:18;5.80;99.90
34406;DHT22;20658;45.630;8.886;2022-12-18T06:02:52;5.80;99.90
34406;DHT22;20658;45.630;8.886;2022-12-18T06:05:27;5.80;99.90
34406;DHT22;20658;45.630;8.886;2022-12-18T06:08:01;5.80;99.90
34406;DHT22;20658;45.630;8.886;2022-12-18T06:10:34;5.80;99.90
34406;DHT22;20658;45.630;8.886;2022-12-18T06:13:08;5.80;99.90
34406;DHT22;20658;45.630;8.886;2022-12-18T06:15:41;5.80;99.90
34406;DHT22;20658;45.630;8.886;2022-12-18T06:18:15;5.80;99.90
34406;DHT22;20658;45.630;8.886;2022-12-18T06:20:55;5.80;99.90
34406;DHT22;20658;45.630;8.886;2022-12-18T06:23:29;5.80;99.90
34406;DHT22;20658;45.630;8.886;2022-12-18T06:26:06;5.70;99.90
34406;DHT22;20658;45.630;8.886;2022-12-18T06:28:41;5.70;99.90
34406;DHT22;20658;45.630;8.886;2022-12-18T06:31:14;5.70;99.90
34406;DHT22;20658;45.630;8.886;2022-12-18T06:33:48;5.70;99.90
34406;DHT22;20658;45.630;8.886;2022-12-18T06:36:18;5.70;99.90
34406;DHT22;20658;45.630;8.886;2022-12-18T06:38:51;5.70;99.90
34406;DHT22;20658;45.630;8.886;2022-12-18T06:41:24;5.70;99.90
34406;DHT22;20658;45.630;8.886;2022-12-18T06:43:58;5.70;99.90
34406;DHT22;20658;45.630;8.886;2022-12-18T06:46:31;5.70;99.90
34406;DHT22;20658;45.630;8.886;2022-12-18T06:48:59;5.80;99.90
34406;DHT22;20658;45.630;8.886;2022-12-18T06:51:29;5.80;99.90
34406;DHT22;20658;45.630;8.886;2022-12-18T06:54:03;5.80;99.90
34406;DHT22;20658;45.630;8.886;2022-12-18T06:56:36;5.80;99.90
34406;DHT22;20658;45.630;8.886;2022-12-18T06:59:10;5.80;99.90
34406;DHT22;20658;45.630;8.886;2022-12-18T07:01:43;5.90;99.90
34406;DHT22;20658;45.630;8.886;2022-12-18T07:04:16;5.80;99.90
34406;DHT22;20658;45.630;8.886;2022-12-18T07:06:52;5.70;99.90
34406;DHT22;20658;45.630;8.886;2022-12-18T07:09:25;5.70;99.90
34406;DHT22;20658;45.630;8.886;2022-12-18T07:12:01;5.70;99.90
34406;DHT22;20658;45.630;8.886;2022-12-18T07:14:36;5.70;99.90
34406;DHT22;20658;45.630;8.886;2022-12-18T07:17:10;5.80;99.90
34406;DHT22;20658;45.630;8.886;2022-12-18T07:19:43;5.80;99.90
34406;DHT22;20658;45.630;8.886;2022-12-18T07:22:18;5.80;99.90
34406;DHT22;20658;45.630;8.886;2022-12-18T07:24:51;5.80;99.90
34406;DHT22;20658;45.630;8.886;2022-12-18T07:27:25;5.80;99.90
34406;DHT22;20658;45.630;8.886;2022-12-18T07:29:58;5.80;99.90
34406;DHT22;20658;45.630;8.886;2022-12-18T07:32:31;5.80;99.90
34406;DHT22;20658;45.630;8.886;2022-12-18T07:35:06;5.80;99.90
34406;DHT22;20658;45.630;8.886;2022-12-18T07:37:41;5.80;99.90
34406;DHT22;20658;45.630;8.886;2022-12-18T07:40:10;5.80;99.90
34406;DHT22;20658;45.630;8.886;2022-12-18T07:42:44;5.80;99.90
34406;DHT22;20658;45.630;8.886;2022-12-18T07:45:18;5.90;99.90
34406;DHT22;20658;45.630;8.886;2022-12-18T07:47:51;5.80;99.90
34406;DHT22;20658;45.630;8.886;2022-12-18T07:50:25;5.80;99.90
34406;DHT22;20658;45.630;8.886;2022-12-18T07:53:00;5.90;99.90
34406;DHT22;20658;45.630;8.886;2022-12-18T07:55:35;5.90;99.90
34406;DHT22;20658;45.630;8.886;2022-12-18T07:58:09;5.90;99.90
34406;DHT22;20658;45.630;8.886;2022-12-18T08:00:37;5.90;99.90
34406;DHT22;20658;45.630;8.886;2022-12-18T08:03:10;6.30;99.90
34406;DHT22;20658;45.630;8.886;2022-12-18T08:05:49;5.90;99.90
34406;DHT22;20658;45.630;8.886;2022-12-18T08:08:24;6.00;99.90
34406;DHT22;20658;45.630;8.886;2022-12-18T08:10:57;5.90;99.90
34406;DHT22;20658;45.630;8.886;2022-12-18T08:13:31;5.90;99.90
34406;DHT22;20658;45.630;8.886;2022-12-18T08:16:07;5.90;99.90
34406;DHT22;20658;45.630;8.886;2022-12-18T08:18:40;5.90;99.90
34406;DHT22;20658;45.630;8.886;2022-12-18T08:21:15;5.90;99.90
34406;DHT22;20658;45.630;8.886;2022-12-18T08:23:56;5.90;99.90
34406;DHT22;20658;45.630;8.886;2022-12-18T08:26:30;6.00;99.90
34406;DHT22;20658;45.630;8.886;2022-12-18T08:29:04;5.90;99.90
34406;DHT22;20658;45.630;8.886;2022-12-18T08:31:37;5.90;99.90
34406;DHT22;20658;45.630;8.886;2022-12-18T08:34:11;6.00;99.90
34406;DHT22;20658;45.630;8.886;2022-12-18T08:36:44;6.10;99.90
34406;DHT22;20658;45.630;8.886;2022-12-18T08:39:19;6.10;99.90
34406;DHT22;20658;45.630;8.886;2022-12-18T08:41:53;6.10;99.90
34406;DHT22;20658;45.630;8.886;2022-12-18T08:44:43;6.30;99.90
34406;DHT22;20658;45.630;8.886;2022-12-18T08:47:17;6.30;99.90
34406;DHT22;20658;45.630;8.886;2022-12-18T08:49:51;6.20;99.90
34406;DHT22;20658;45.630;8.886;2022-12-18T08:52:24;6.20;99.90
34406;DHT22;20658;45.630;8.886;2022-12-18T08:54:59;6.20;99.90
34406;DHT22;20658;45.630;8.886;2022-12-18T08:57:35;6.20;99.90
34406;DHT22;20658;45.630;8.886;2022-12-18T09:00:09;6.20;99.90
34406;DHT22;20658;45.630;8.886;2022-12-18T09:02:44;6.20;99.90
34406;DHT22;20658;45.630;8.886;2022-12-18T09:05:18;6.30;99.90
34406;DHT22;20658;45.630;8.886;2022-12-18T09:07:46;6.30;99.90
34406;DHT22;20658;45.630;8.886;2022-12-18T09:10:21;6.30;99.90
34406;DHT22;20658;45.630;8.886;2022-12-18T09:12:54;6.30;99.90
34406;DHT22;20658;45.630;8.886;2022-12-18T09:15:28;6.30;99.90
34406;DHT22;20658;45.630;8.886;2022-12-18T09:18:01;6.40;99.90
34406;DHT22;20658;45.630;8.886;2022-12-18T09:20:35;6.40;99.90
34406;DHT22;20658;45.630;8.886;2022-12-18T09:23:04;6.40;99.90
34406;DHT22;20658;45.630;8.886;2022-12-18T09:25:39;6.50;99.90
34406;DHT22;20658;45.630;8.886;2022-12-18T09:28:18;6.50;99.90
34406;DHT22;20658;45.630;8.886;2022-12-18T09:30:51;6.50;99.90
34406;DHT22;20658;45.630;8.886;2022-12-18T09:33:20;6.50;99.90
34406;DHT22;20658;45.630;8.886;2022-12-18T09:35:53;6.60;99.90
34406;DHT22;20658;45.630;8.886;2022-12-18T09:38:21;6.60;99.90
34406;DHT22;20658;45.630;8.886;2022-12-18T09:41:00;6.60;99.90
34406;DHT22;20658;45.630;8.886;2022-12-18T09:43:40;6.70;99.90
34406;DHT22;20658;45.630;8.886;2022-12-18T09:46:19;6.70;99.90
34406;DHT22;20658;45.630;8.886;2022-12-18T09:49:00;6.80;99.90
34406;DHT22;20658;45.630;8.886;2022-12-18T09:51:39;6.80;99.90
34406;DHT22;20658;45.630;8.886;2022-12-18T09:54:20;6.90;99.90
34406;DHT22;20658;45.630;8.886;2022-12-18T09:56:56;7.10;99.90
34406;DHT22;20658;45.630;8.886;2022-12-18T09:59:35;7.50;99.90
34406;DHT22;20658;45.630;8.886;2022-12-18T10:02:15;7.10;99.90
34406;DHT22;20658;45.630;8.886;2022-12-18T10:05:00;7.20;99.10
34406;DHT22;20658;45.630;8.886;2022-12-18T10:07:47;7.30;99.70
34406;DHT22;20658;45.630;8.886;2022-12-18T10:10:30;7.50;99.80
34406;DHT22;20658;45.630;8.886;2022-12-18T10:13:06;7.50;97.80
34406;DHT22;20658;45.630;8.886;2022-12-18T10:15:52;7.60;97.80
34406;DHT22;20658;45.630;8.886;2022-12-18T10:18:52;7.60;96.10
34406;DHT22;20658;45.630;8.886;2022-12-18T10:21:36;7.70;96.00
34406;DHT22;20658;45.630;8.886;2022-12-18T10:24:18;7.80;94.20
34406;DHT22;20658;45.630;8.886;2022-12-18T10:26:56;7.80;94.30
34406;DHT22;20658;45.630;8.886;2022-12-18T10:29:35;7.90;94.70
34406;DHT22;20658;45.630;8.886;2022-12-18T10:32:14;8.10;94.80
34406;DHT22;20658;45.630;8.886;2022-12-18T10:34:50;8.10;92.50
34406;DHT22;20658;45.630;8.886;2022-12-18T10:37:29;8.10;92.30
34406;DHT22;20658;45.630;8.886;2022-12-18T10:40:12;8.10;91.80
34406;DHT22;20658;45.630;8.886;2022-12-18T10:42:42;8.20;92.30
34406;DHT22;20658;45.630;8.886;2022-12-18T10:45:17;8.30;92.50
34406;DHT22;20658;45.630;8.886;2022-12-18T10:47:47;8.30;91.60
34406;DHT22;20658;45.630;8.886;2022-12-18T10:50:26;8.40;92.10
34406;DHT22;20658;45.630;8.886;2022-12-18T10:53:04;8.40;92.30
34406;DHT22;20658;45.630;8.886;2022-12-18T10:55:39;8.30;92.30
34406;DHT22;20658;45.630;8.886;2022-12-18T10:58:23;8.30;92.60
34406;DHT22;20658;45.630;8.886;2022-12-18T11:01:23;8.20;91.80
34406;DHT22;20658;45.630;8.886;2022-12-18T11:04:04;8.30;93.20
34406;DHT22;20658;45.630;8.886;2022-12-18T11:06:54;8.30;92.50
34406;DHT22;20658;45.630;8.886;2022-12-18T11:09:27;8.40;93.20
34406;DHT22;20658;45.630;8.886;2022-12-18T11:12:01;8.40;92.20
34406;DHT22;20658;45.630;8.886;2022-12-18T11:14:34;8.50;94.70
34406;DHT22;20658;45.630;8.886;2022-12-18T11:17:20;8.60;96.30
34406;DHT22;20658;45.630;8.886;2022-12-18T11:19:55;8.80;97.40
34406;DHT22;20658;45.630;8.886;2022-12-18T11:22:30;8.60;98.00
34406;DHT22;20658;45.630;8.886;2022-12-18T11:25:19;8.60;98.70
34406;DHT22;20658;45.630;8.886;2022-12-18T11:27:49;8.60;99.30
34406;DHT22;20658;45.630;8.886;2022-12-18T11:30:27;9.10;99.80
34406;DHT22;20658;45.630;8.886;2022-12-18T11:33:06;8.60;99.90
34406;DHT22;20658;45.630;8.886;2022-12-18T11:35:42;8.60;99.90
34406;DHT22;20658;45.630;8.886;2022-12-18T11:38:23;8.70;99.90
34406;DHT22;20658;45.630;8.886;2022-12-18T11:40:56;8.70;99.50
34406;DHT22;20658;45.630;8.886;2022-12-18T11:43:35;8.80;99.70
34406;DHT22;20658;45.630;8.886;2022-12-18T11:46:14;8.70;99.60
34406;DHT22;20658;45.630;8.886;2022-12-18T11:48:55;8.60;99.50
34406;DHT22;20658;45.630;8.886;2022-12-18T11:51:30;8.60;99.90
34406;DHT22;20658;45.630;8.886;2022-12-18T11:54:11;8.60;99.90
34406;DHT22;20658;45.630;8.886;2022-12-18T11:56:48;8.50;99.90
34406;DHT22;20658;45.630;8.886;2022-12-18T11:59:30;8.40;99.90
34406;DHT22;20658;45.630;8.886;2022-12-18T12:02:26;8.40;99.90
34406;DHT22;20658;45.630;8.886;2022-12-18T12:05:20;8.90;99.90
34406;DHT22;20658;45.630;8.886;2022-12-18T12:08:04;8.60;99.90
34406;DHT22;20658;45.630;8.886;2022-12-18T12:10:53;8.60;99.90
34406;DHT22;20658;45.630;8.886;2022-12-18T12:13:39;8.80;99.90
34406;DHT22;20658;45.630;8.886;2022-12-18T12:16:22;8.80;99.90
34406;DHT22;20658;45.630;8.886;2022-12-18T12:19:15;8.90;99.70
34406;DHT22;20658;45.630;8.886;2022-12-18T12:22:03;9.10;99.90
34406;DHT22;20658;45.630;8.886;2022-12-18T12:24:51;9.10;98.20
34406;DHT22;20658;45.630;8.886;2022-12-18T12:27:37;9.20;97.40
34406;DHT22;20658;45.630;8.886;2022-12-18T12:30:20;9.20;97.60
34406;DHT22;20658;45.630;8.886;2022-12-18T12:33:05;9.30;96.90
34406;DHT22;20658;45.630;8.886;2022-12-18T12:35:47;9.40;96.70
34406;DHT22;20658;45.630;8.886;2022-12-18T12:38:33;9.40;96.80
34406;DHT22;20658;45.630;8.886;2022-12-18T12:41:12;9.30;96.00
34406;DHT22;20658;45.630;8.886;2022-12-18T12:44:01;9.30;96.30
34406;DHT22;20658;45.630;8.886;2022-12-18T12:46:39;9.30;96.20
34406;DHT22;20658;45.630;8.886;2022-12-18T12:49:17;9.30;96.10
34406;DHT22;20658;45.630;8.886;2022-12-18T12:51:56;9.30;96.10
34406;DHT22;20658;45.630;8.886;2022-12-18T12:54:34;9.40;95.80
34406;DHT22;20658;45.630;8.886;2022-12-18T12:57:11;9.50;95.60
34406;DHT22;20658;45.630;8.886;2022-12-18T12:59:56;9.40;94.80
34406;DHT22;20658;45.630;8.886;2022-12-18T13:02:35;9.40;95.40
34406;DHT22;20658;45.630;8.886;2022-12-18T13:05:18;9.40;95.20
34406;DHT22;20658;45.630;8.886;2022-12-18T13:07:56;9.40;94.80
34406;DHT22;20658;45.630;8.886;2022-12-18T13:10:37;9.30;95.90
34406;DHT22;20658;45.630;8.886;2022-12-18T13:13:07;9.30;95.90
34406;DHT22;20658;45.630;8.886;2022-12-18T13:15:42;9.20;95.60
34406;DHT22;20658;45.630;8.886;2022-12-18T13:18:20;9.20;95.90
34406;DHT22;20658;45.630;8.886;2022-12-18T13:21:03;9.10;96.00
34406;DHT22;20658;45.630;8.886;2022-12-18T13:23:45;9.00;96.10
34406;DHT22;20658;45.630;8.886;2022-12-18T13:26:30;9.00;97.10
34406;DHT22;20658;45.630;8.886;2022-12-18T13:29:05;9.00;97.40
34406;DHT22;20658;45.630;8.886;2022-12-18T13:31:58;9.00;97.10
34406;DHT22;20658;45.630;8.886;2022-12-18T13:34:32;9.10;97.20
34406;DHT22;20658;45.630;8.886;2022-12-18T13:37:41;9.00;96.80
34406;DHT22;20658;45.630;8.886;2022-12-18T13:43:32;8.90;96.70
34406;DHT22;20658;45.630;8.886;2022-12-18T13:46:23;8.80;97.00
34406;DHT22;20658;45.630;8.886;2022-12-18T13:49:00;8.80;97.10
34406;DHT22;20658;45.630;8.886;2022-12-18T13:51:40;8.60;97.50
34406;DHT22;20658;45.630;8.886;2022-12-18T13:54:19;8.60;97.90
34406;DHT22;20658;45.630;8.886;2022-12-18T13:56:56;8.60;97.90
34406;DHT22;20658;45.630;8.886;2022-12-18T13:59:35;8.50;98.00
34406;DHT22;20658;45.630;8.886;2022-12-18T14:02:14;8.30;98.40
34406;DHT22;20658;45.630;8.886;2022-12-18T14:04:49;8.20;99.10
34406;DHT22;20658;45.630;8.886;2022-12-18T14:07:20;8.20;99.30
34406;DHT22;20658;45.630;8.886;2022-12-18T14:09:51;8.10;99.10
34406;DHT22;20658;45.630;8.886;2022-12-18T14:12:27;8.10;99.60
34406;DHT22;20658;45.630;8.886;2022-12-18T14:15:24;8.00;99.80
34406;DHT22;20658;45.630;8.886;2022-12-18T14:18:16;7.90;99.90
34406;DHT22;20658;45.630;8.886;2022-12-18T14:20:49;7.90;99.90
34406;DHT22;20658;45.630;8.886;2022-12-18T14:23:29;7.90;99.90
34406;DHT22;20658;45.630;8.886;2022-12-18T14:26:21;7.90;99.90
34406;DHT22;20658;45.630;8.886;2022-12-18T14:28:58;7.90;99.90
34406;DHT22;20658;45.630;8.886;2022-12-18T14:31:34;7.80;99.90
34406;DHT22;20658;45.630;8.886;2022-12-18T14:34:15;7.80;99.90
34406;DHT22;20658;45.630;8.886;2022-12-18T14:36:52;7.70;99.90
34406;DHT22;20658;45.630;8.886;2022-12-18T14:39:27;7.70;99.90
34406;DHT22;20658;45.630;8.886;2022-12-18T14:42:00;7.60;99.90
34406;DHT22;20658;45.630;8.886;2022-12-18T14:44:33;7.60;99.90
34406;DHT22;20658;45.630;8.886;2022-12-18T14:47:14;7.50;99.90
34406;DHT22;20658;45.630;8.886;2022-12-18T14:49:48;7.50;99.90
34406;DHT22;20658;45.630;8.886;2022-12-18T14:52:27;7.40;99.90
34406;DHT22;20658;45.630;8.886;2022-12-18T14:55:02;7.30;99.90
34406;DHT22;20658;45.630;8.886;2022-12-18T14:57:36;7.30;99.90
34406;DHT22;20658;45.630;8.886;2022-12-18T15:00:16;7.30;99.90
34406;DHT22;20658;45.630;8.886;2022-12-18T15:02:49;7.20;99.90
34406;DHT22;20658;45.630;8.886;2022-12-18T15:05:23;7.20;99.90
34406;DHT22;20658;45.630;8.886;2022-12-18T15:07:55;7.10;99.90
34406;DHT22;20658;45.630;8.886;2022-12-18T15:10:31;7.10;99.90
34406;DHT22;20658;45.630;8.886;2022-12-18T15:13:08;7.00;99.90
34406;DHT22;20658;45.630;8.886;2022-12-18T15:15:49;6.90;99.90
34406;DHT22;20658;45.630;8.886;2022-12-18T15:18:29;6.80;99.90
34406;DHT22;20658;45.630;8.886;2022-12-18T15:21:09;6.80;99.90
34406;DHT22;20658;45.630;8.886;2022-12-18T15:23:46;6.70;99.90
34406;DHT22;20658;45.630;8.886;2022-12-18T15:26:21;6.70;99.90
34406;DHT22;20658;45.630;8.886;2022-12-18T15:28:51;6.60;99.90
34406;DHT22;20658;45.630;8.886;2022-12-18T15:31:32;6.50;99.90
34406;DHT22;20658;45.630;8.886;2022-12-18T15:34:11;6.50;99.90
34406;DHT22;20658;45.630;8.886;2022-12-18T15:36:41;6.40;99.90
34406;DHT22;20658;45.630;8.886;2022-12-18T15:39:11;6.40;99.90
34406;DHT22;20658;45.630;8.886;2022-12-18T15:41:40;6.30;99.90
34406;DHT22;20658;45.630;8.886;2022-12-18T15:44:34;6.30;99.90
34406;DHT22;20658;45.630;8.886;2022-12-18T15:47:01;6.20;99.90
34406;DHT22;20658;45.630;8.886;2022-12-18T15:49:36;6.20;99.90
34406;DHT22;20658;45.630;8.886;2022-12-18T15:52:05;6.10;99.90
34406;DHT22;20658;45.630;8.886;2022-12-18T15:54:38;6.10;99.90
34406;DHT22;20658;45.630;8.886;2022-12-18T15:57:29;6.00;99.90
34406;DHT22;20658;45.630;8.886;2022-12-18T15:59:57;5.90;99.90
34406;DHT22;20658;45.630;8.886;2022-12-18T16:02:26;5.80;99.90
34406;DHT22;20658;45.630;8.886;2022-12-18T16:05:02;5.80;99.90
34406;DHT22;20658;45.630;8.886;2022-12-18T16:07:36;5.70;99.90
34406;DHT22;20658;45.630;8.886;2022-12-18T16:10:10;5.70;99.90
34406;DHT22;20658;45.630;8.886;2022-12-18T16:12:38;5.60;99.90
34406;DHT22;20658;45.630;8.886;2022-12-18T16:15:10;5.50;99.90
34406;DHT22;20658;45.630;8.886;2022-12-18T16:17:40;5.50;99.90
34406;DHT22;20658;45.630;8.886;2022-12-18T16:20:15;5.40;99.90
34406;DHT22;20658;45.630;8.886;2022-12-18T16:22:50;5.40;99.90
34406;DHT22;20658;45.630;8.886;2022-12-18T16:25:26;5.40;99.90
34406;DHT22;20658;45.630;8.886;2022-12-18T16:28:00;5.10;99.90
34406;DHT22;20658;45.630;8.886;2022-12-18T16:30:33;5.30;99.90
34406;DHT22;20658;45.630;8.886;2022-12-18T16:33:02;5.20;99.90
34406;DHT22;20658;45.630;8.886;2022-12-18T16:35:32;5.20;99.90
34406;DHT22;20658;45.630;8.886;2022-12-18T16:38:00;5.10;99.90
34406;DHT22;20658;45.630;8.886;2022-12-18T16:40:37;5.10;99.90
34406;DHT22;20658;45.630;8.886;2022-12-18T16:43:27;5.10;99.90
34406;DHT22;20658;45.630;8.886;2022-12-18T16:46:01;5.00;99.90
34406;DHT22;20658;45.630;8.886;2022-12-18T16:48:29;4.90;99.90